Aviation Digital Data Service (ADDS)

Output produced by METARs form (1035 UTC 25 September 2016)
found at http://aviationweather.gov/adds/metars/
 
KLAN 250546Z 2506/2606 08004KT P6SM SKC 
     FM251400 14010KT P6SM SCT040 SCT070